Wetterdaten: Woche 03.07.17 - 09.07.17 (KW27)
Datum Zeit Temp. A. Pool Temp. Feuchte A. Luftdruck Regen Wind Richtung Sonnenschein ET UV Solar Taupunkt Windchill Windben Empfang
03.07.2017 00:00 16,0 C 21,1 C 89 % 1018,5 hPa 0,0 l/m 10,0 km/h (2 Bft) W-SW 0,00 h 0,000 mm 0,0 UV-I 0 W/m 14,2 C 14,3 C 16,0 km/h (3 Bft) 98,42 %
03.07.2017 01:00 16,2 C 21,1 C 86 % 1019,0 hPa 0,0 l/m 11,3 km/h (2 Bft) W-SW 0,00 h 0,025 mm 0,0 UV-I 0 W/m 13,8 C 13,9 C 17,1 km/h (3 Bft) 95,34 %
03.07.2017 02:00 15,9 C 21,1 C 85 % 1019,4 hPa 0,0 l/m 8,8 km/h (2 Bft) W-SW 0,00 h 0,026 mm 0,0 UV-I 0 W/m 13,4 C 14,7 C 14,1 km/h (3 Bft) 97,50 %
03.07.2017 03:00 15,3 C 20,8 C 89 % 1019,6 hPa 0,0 l/m 9,8 km/h (2 Bft) W-SW 0,00 h 0,025 mm 0,0 UV-I 0 W/m 13,5 C 13,6 C 15,4 km/h (3 Bft) 97,20 %
03.07.2017 04:00 15,0 C 20,6 C 89 % 1019,6 hPa 0,0 l/m 11,8 km/h (2 Bft) W-SW 0,00 h 0,026 mm 0,0 UV-I 0 W/m 13,2 C 12,4 C 17,8 km/h (3 Bft) 98,35 %
03.07.2017 05:00 14,5 C 20,6 C 91 % 1020,0 hPa 0,6 l/m 8,7 km/h (2 Bft) W-SW 0,00 h 0,025 mm 0,0 UV-I 5 W/m 13,1 C 13,1 C 14,2 km/h (3 Bft) 95,26 %
03.07.2017 06:00 14,2 C 20,6 C 93 % 1020,4 hPa 0,4 l/m 5,6 km/h (1 Bft) W-SW 0,00 h 0,025 mm 0,0 UV-I 21 W/m 13,2 C 14,2 C 9,8 km/h (2 Bft) 97,56 %
03.07.2017 07:00 14,7 C 20,6 C 93 % 1020,7 hPa 0,0 l/m 6,8 km/h (2 Bft) W-SW 0,07 h 0,026 mm 0,6 UV-I 126 W/m 13,6 C 14,2 C 12,0 km/h (2 Bft) 95,81 %
03.07.2017 08:00 15,9 C 20,6 C 89 % 1021,2 hPa 0,0 l/m 5,8 km/h (2 Bft) W-SW 0,33 h 0,076 mm 1,0 UV-I 274 W/m 14,1 C 15,8 C 12,4 km/h (3 Bft) 98,02 %
03.07.2017 09:00 17,0 C 20,6 C 83 % 1021,3 hPa 0,0 l/m 5,0 km/h (1 Bft) W 0,50 h 0,152 mm 1,8 UV-I 357 W/m 14,1 C 16,7 C 10,9 km/h (2 Bft) 95,16 %
03.07.2017 10:00 18,0 C 20,7 C 78 % 1021,4 hPa 0,0 l/m 8,1 km/h (2 Bft) W-SW 0,70 h 0,204 mm 2,8 UV-I 453 W/m 14,0 C 17,1 C 14,2 km/h (3 Bft) 97,66 %
03.07.2017 11:00 18,4 C 21,1 C 73 % 1021,4 hPa 0,0 l/m 10,4 km/h (2 Bft) W-SW 0,17 h 0,279 mm 2,3 UV-I 324 W/m 13,4 C 16,8 C 17,0 km/h (3 Bft) 96,92 %
03.07.2017 12:00 19,1 C 21,1 C 71 % 1021,3 hPa 0,0 l/m 14,5 km/h (3 Bft) W-SW 0,37 h 0,229 mm 4,1 UV-I 537 W/m 13,7 C 16,4 C 22,7 km/h (4 Bft) 97,54 %
03.07.2017 13:00 20,2 C 21,1 C 65 % 1021,0 hPa 0,0 l/m 15,2 km/h (3 Bft) W-SW 0,77 h 0,381 mm 4,8 UV-I 694 W/m 13,4 C 17,4 C 23,5 km/h (4 Bft) 94,91 %
03.07.2017 14:00 21,0 C 21,2 C 59 % 1020,5 hPa 0,0 l/m 13,0 km/h (3 Bft) W-SW 0,25 h 0,482 mm 3,5 UV-I 367 W/m 12,6 C 19,0 C 20,4 km/h (4 Bft) 96,76 %
03.07.2017 15:00 21,7 C 21,7 C 55 % 1020,1 hPa 0,0 l/m 12,2 km/h (2 Bft) W-SW 0,40 h 0,356 mm 3,3 UV-I 511 W/m 12,1 C 20,0 C 20,0 km/h (4 Bft) 96,70 %
03.07.2017 16:00 21,8 C 21,7 C 52 % 1019,7 hPa 0,0 l/m 10,5 km/h (2 Bft) W 0,43 h 0,381 mm 2,1 UV-I 406 W/m 11,6 C 20,6 C 18,2 km/h (3 Bft) 97,00 %
03.07.2017 17:00 22,8 C 21,7 C 48 % 1019,4 hPa 0,0 l/m 12,9 km/h (3 Bft) W-SW 0,67 h 0,330 mm 1,6 UV-I 382 W/m 11,1 C 21,1 C 21,3 km/h (4 Bft) 97,20 %
03.07.2017 18:00 20,7 C 21,7 C 57 % 1019,4 hPa 0,0 l/m 6,4 km/h (2 Bft) W 0,10 h 0,305 mm 0,3 UV-I 115 W/m 11,8 C 20,4 C 11,8 km/h (2 Bft) 97,68 %
03.07.2017 19:00 21,6 C 21,7 C 53 % 1019,3 hPa 0,0 l/m 7,4 km/h (2 Bft) W-SW 0,93 h 0,127 mm 0,3 UV-I 151 W/m 11,6 C 21,1 C 12,3 km/h (3 Bft) 97,95 %
03.07.2017 20:00 20,5 C 21,7 C 58 % 1019,3 hPa 0,0 l/m 3,4 km/h (1 Bft) SW 0,53 h 0,152 mm 0,0 UV-I 40 W/m 12,0 C 20,5 C 5,2 km/h (1 Bft) 97,82 %
03.07.2017 21:00 17,4 C 21,8 C 72 % 1019,7 hPa 0,0 l/m 2,9 km/h (1 Bft) SW 0,00 h 0,051 mm 0,0 UV-I 7 W/m 12,3 C 17,4 C 5,1 km/h (1 Bft) 97,44 %
03.07.2017 22:00 17,1 C 21,7 C 72 % 1019,7 hPa 0,0 l/m 3,9 km/h (1 Bft) S-SW 0,00 h 0,025 mm 0,0 UV-I 0 W/m 12,1 C 17,1 C 6,4 km/h (2 Bft) 96,40 %
03.07.2017 23:00 15,7 C 21,7 C 77 % 1019,7 hPa 0,0 l/m 4,9 km/h (1 Bft) S 0,00 h 0,026 mm 0,0 UV-I 0 W/m 11,6 C 15,7 C 8,1 km/h (2 Bft) 97,63 %
04.07.2017 00:00 14,5 C 21,7 C 81 % 1019,6 hPa 0,0 l/m 4,7 km/h (1 Bft) S-SW 0,00 h 0,000 mm 0,0 UV-I 0 W/m 11,3 C 14,5 C 7,2 km/h (2 Bft) 98,22 %
04.07.2017 01:00 14,1 C 21,5 C 83 % 1019,4 hPa 0,0 l/m 6,5 km/h (2 Bft) S-SW 0,00 h 0,025 mm 0,0 UV-I 0 W/m 11,1 C 13,9 C 9,7 km/h (2 Bft) 96,54 %
04.07.2017 02:00 13,7 C 21,2 C 85 % 1019,3 hPa 0,0 l/m 6,1 km/h (2 Bft) S-SW 0,00 h 0,026 mm 0,0 UV-I 0 W/m 11,2 C 13,5 C 9,1 km/h (2 Bft) 97,35 %
04.07.2017 03:00 14,7 C 21,1 C 84 % 1019,2 hPa 0,0 l/m 7,2 km/h (2 Bft) S-SW 0,00 h 0,025 mm 0,0 UV-I 0 W/m 12,0 C 14,2 C 11,0 km/h (2 Bft) 97,59 %
04.07.2017 04:00 14,7 C 21,1 C 86 % 1019,2 hPa 0,0 l/m 6,8 km/h (2 Bft) SW 0,00 h 0,026 mm 0,0 UV-I 0 W/m 12,4 C 14,4 C 9,7 km/h (2 Bft) 98,12 %
04.07.2017 05:00 14,8 C 21,1 C 87 % 1019,3 hPa 0,0 l/m 8,4 km/h (2 Bft) SW 0,17 h 0,025 mm 0,0 UV-I 21 W/m 12,6 C 13,6 C 12,7 km/h (3 Bft) 95,73 %
04.07.2017 06:00 15,4 C 20,7 C 85 % 1019,6 hPa 0,0 l/m 5,2 km/h (1 Bft) SW 0,43 h 0,025 mm 0,0 UV-I 119 W/m 12,9 C 15,4 C 8,1 km/h (2 Bft) 97,32 %
04.07.2017 07:00 17,5 C 20,6 C 77 % 1019,7 hPa 0,0 l/m 6,5 km/h (2 Bft) W-SW 0,97 h 0,077 mm 0,7 UV-I 297 W/m 13,4 C 17,2 C 10,6 km/h (2 Bft) 96,18 %
04.07.2017 08:00 19,6 C 20,6 C 69 % 1019,9 hPa 0,0 l/m 5,6 km/h (1 Bft) W 0,70 h 0,177 mm 1,3 UV-I 343 W/m 13,6 C 19,3 C 10,0 km/h (2 Bft) 96,37 %
04.07.2017 09:00 20,5 C 20,9 C 65 % 1020,1 hPa 0,0 l/m 8,0 km/h (2 Bft) SW 0,67 h 0,229 mm 2,2 UV-I 426 W/m 13,7 C 19,8 C 13,6 km/h (3 Bft) 96,03 %
04.07.2017 10:00 21,4 C 21,1 C 61 % 1020,0 hPa 0,0 l/m 9,8 km/h (2 Bft) SW 0,63 h 0,279 mm 2,8 UV-I 426 W/m 13,7 C 20,3 C 16,0 km/h (3 Bft) 98,02 %
04.07.2017 11:00 22,6 C 21,1 C 56 % 1019,8 hPa 0,0 l/m 10,8 km/h (2 Bft) W-SW 0,70 h 0,305 mm 4,8 UV-I 722 W/m 13,4 C 21,4 C 17,5 km/h (3 Bft) 97,57 %
04.07.2017 12:00 23,4 C 21,3 C 50 % 1019,4 hPa 0,0 l/m 11,6 km/h (2 Bft) W-SW 0,27 h 0,508 mm 3,7 UV-I 500 W/m 12,3 C 22,1 C 18,1 km/h (3 Bft) 95,12 %
04.07.2017 13:00 23,0 C 21,7 C 52 % 1019,1 hPa 0,0 l/m 4,5 km/h (1 Bft) W-SW 0,30 h 0,381 mm 3,5 UV-I 424 W/m 12,7 C 22,9 C 10,4 km/h (2 Bft) 94,65 %
04.07.2017 14:00 23,2 C 21,7 C 52 % 1019,1 hPa 0,0 l/m 5,7 km/h (1 Bft) W 0,13 h 0,305 mm 2,5 UV-I 317 W/m 12,9 C 23,1 C 11,7 km/h (2 Bft) 95,90 %
04.07.2017 15:00 23,6 C 21,7 C 51 % 1018,9 hPa 0,0 l/m 3,9 km/h (1 Bft) N-NW 0,13 h 0,229 mm 2,2 UV-I 345 W/m 12,8 C 23,5 C 8,9 km/h (2 Bft) 97,17 %
04.07.2017 16:00 24,3 C 22,0 C 49 % 1018,6 hPa 0,0 l/m 3,2 km/h (1 Bft) N-NW 0,53 h 0,254 mm 2,4 UV-I 458 W/m 13,0 C 24,3 C 7,5 km/h (2 Bft) 96,14 %
04.07.2017 17:00 24,9 C 22,2 C 48 % 1018,2 hPa 0,0 l/m 3,5 km/h (1 Bft) NW 0,77 h 0,304 mm 1,6 UV-I 420 W/m 13,0 C 24,9 C 7,5 km/h (2 Bft) 94,57 %
04.07.2017 18:00 25,1 C 22,2 C 45 % 1017,8 hPa 0,0 l/m 3,6 km/h (1 Bft) W-SW 0,83 h 0,305 mm 0,8 UV-I 281 W/m 12,5 C 25,1 C 7,4 km/h (2 Bft) 95,66 %
04.07.2017 19:00 24,3 C 22,2 C 49 % 1017,8 hPa 0,0 l/m 0,9 km/h (0 Bft) N-NW 0,97 h 0,203 mm 0,4 UV-I 147 W/m 12,9 C 24,3 C 3,1 km/h (1 Bft) 97,53 %
04.07.2017 20:00 22,7 C 22,2 C 55 % 1017,9 hPa 0,0 l/m 0,5 km/h (0 Bft) NW 0,47 h 0,102 mm 0,0 UV-I 43 W/m 13,1 C 22,7 C 1,9 km/h (1 Bft) 95,55 %
04.07.2017 21:00 19,1 C 22,2 C 69 % 1018,3 hPa 0,0 l/m 1,6 km/h (1 Bft) NW 0,00 h 0,025 mm 0,0 UV-I 7 W/m 13,3 C 19,1 C 2,5 km/h (1 Bft) 96,11 %
04.07.2017 22:00 17,8 C 22,2 C 73 % 1018,6 hPa 0,0 l/m 0,7 km/h (0 Bft) NW 0,00 h 0,026 mm 0,0 UV-I 0 W/m 12,9 C 17,8 C 1,5 km/h (1 Bft) 96,00 %
04.07.2017 23:00 16,9 C 21,9 C 76 % 1018,5 hPa 0,0 l/m 1,5 km/h (1 Bft) NW 0,00 h 0,000 mm 0,0 UV-I 0 W/m 12,7 C 16,9 C 2,8 km/h (1 Bft) 97,50 %
05.07.2017 00:00 16,0 C 21,7 C 82 % 1018,4 hPa 0,0 l/m 2,1 km/h (1 Bft) NW 0,00 h 0,000 mm 0,0 UV-I 0 W/m 12,8 C 16,0 C 3,3 km/h (1 Bft) 94,62 %
05.07.2017 01:00 15,0 C 21,7 C 86 % 1018,2 hPa 0,0 l/m 0,8 km/h (0 Bft) NW 0,00 h 0,000 mm 0,0 UV-I 0 W/m 12,6 C 15,0 C 1,9 km/h (1 Bft) 96,11 %
05.07.2017 02:00 14,4 C 21,7 C 88 % 1018,1 hPa 0,0 l/m 0,2 km/h (0 Bft) NW 0,00 h 0,000 mm 0,0 UV-I 0 W/m 12,4 C 14,4 C 0,4 km/h (0 Bft) 95,85 %
05.07.2017 03:00 13,7 C 21,7 C 89 % 1017,9 hPa 0,0 l/m 0,6 km/h (0 Bft) NW 0,00 h 0,000 mm 0,0 UV-I 0 W/m 11,9 C 13,7 C 1,3 km/h (1 Bft) 96,79 %
05.07.2017 04:00 13,0 C 21,1 C 90 % 1017,7 hPa 0,0 l/m 0,5 km/h (0 Bft) NW 0,00 h 0,000 mm 0,0 UV-I 5 W/m 11,5 C 13,0 C 1,3 km/h (1 Bft) 93,86 %
05.07.2017 05:00 12,7 C 21,1 C 92 % 1017,5 hPa 0,0 l/m 0,7 km/h (0 Bft) NW 0,60 h 0,000 mm 0,0 UV-I 27 W/m 11,4 C 12,7 C 1,6 km/h (1 Bft) 96,93 %
05.07.2017 06:00 13,6 C 21,1 C 91 % 1017,6 hPa 0,0 l/m 0,1 km/h (0 Bft) NW 0,83 h 0,025 mm 0,0 UV-I 116 W/m 12,1 C 13,6 C 0,7 km/h (0 Bft) 96,95 %
05.07.2017 07:00 16,6 C 21,1 C 85 % 1017,7 hPa 0,0 l/m 1,3 km/h (1 Bft) NW 1,00 h 0,051 mm 0,7 UV-I 283 W/m 14,0 C 16,6 C 3,0 km/h (1 Bft) 93,97 %
05.07.2017 08:00 19,1 C 21,3 C 76 % 1017,6 hPa 0,0 l/m 2,2 km/h (1 Bft) NO 1,00 h 0,153 mm 1,6 UV-I 456 W/m 14,7 C 19,1 C 5,1 km/h (1 Bft) 97,41 %
05.07.2017 09:00 21,3 C 21,7 C 68 % 1017,6 hPa 0,0 l/m 3,8 km/h (1 Bft) NO 1,00 h 0,279 mm 2,8 UV-I 608 W/m 15,1 C 21,3 C 7,5 km/h (2 Bft) 97,60 %
05.07.2017 10:00 23,5 C 21,9 C 61 % 1017,4 hPa 0,0 l/m 2,6 km/h (1 Bft) NO 1,00 h 0,381 mm 4,3 UV-I 737 W/m 15,5 C 23,5 C 6,3 km/h (2 Bft) 96,75 %
05.07.2017 11:00 26,0 C 22,2 C 50 % 1017,0 hPa 0,0 l/m 3,5 km/h (1 Bft) N-NO 1,00 h 0,457 mm 5,7 UV-I 836 W/m 14,7 C 26,0 C 7,1 km/h (2 Bft) 95,36 %
05.07.2017 12:00 27,5 C 22,5 C 41 % 1016,6 hPa 0,0 l/m 4,3 km/h (1 Bft) N-NO 1,00 h 0,559 mm 6,5 UV-I 884 W/m 13,1 C 27,5 C 9,3 km/h (2 Bft) 95,88 %
05.07.2017 13:00 28,3 C 22,8 C 37 % 1016,0 hPa 0,0 l/m 5,8 km/h (2 Bft) SW 1,00 h 0,610 mm 6,5 UV-I 895 W/m 12,3 C 28,2 C 11,4 km/h (2 Bft) 97,25 %
05.07.2017 14:00 29,4 C 23,3 C 35 % 1015,3 hPa 0,0 l/m 6,2 km/h (2 Bft) W-SW 1,00 h 0,660 mm 5,8 UV-I 850 W/m 12,3 C 29,3 C 12,1 km/h (2 Bft) 94,72 %
05.07.2017 15:00 30,3 C 23,6 C 33 % 1014,7 hPa 0,0 l/m 5,0 km/h (1 Bft) NW 1,00 h 0,635 mm 4,6 UV-I 760 W/m 12,0 C 30,3 C 11,1 km/h (2 Bft) 97,80 %
05.07.2017 16:00 30,7 C 23,9 C 32 % 1014,2 hPa 0,0 l/m 5,1 km/h (1 Bft) SW 1,00 h 0,559 mm 3,1 UV-I 638 W/m 12,1 C 30,7 C 10,8 km/h (2 Bft) 97,07 %
05.07.2017 17:00 30,7 C 23,9 C 34 % 1013,9 hPa 0,0 l/m 4,3 km/h (1 Bft) W-NW 0,97 h 0,482 mm 1,8 UV-I 469 W/m 12,9 C 30,6 C 9,3 km/h (2 Bft) 95,55 %
05.07.2017 18:00 30,4 C 24,4 C 33 % 1013,6 hPa 0,0 l/m 5,0 km/h (1 Bft) W-SW 1,00 h 0,381 mm 0,8 UV-I 306 W/m 12,3 C 30,4 C 9,8 km/h (2 Bft) 97,20 %
05.07.2017 19:00 29,6 C 24,4 C 35 % 1013,5 hPa 0,0 l/m 5,3 km/h (1 Bft) W-SW 0,70 h 0,280 mm 0,0 UV-I 141 W/m 12,3 C 29,6 C 9,6 km/h (2 Bft) 96,76 %
05.07.2017 20:00 27,5 C 24,0 C 41 % 1013,5 hPa 0,0 l/m 2,6 km/h (1 Bft) W 0,77 h 0,178 mm 0,0 UV-I 43 W/m 13,0 C 27,5 C 4,4 km/h (1 Bft) 93,34 %
05.07.2017 21:00 23,5 C 23,9 C 56 % 1014,3 hPa 0,0 l/m 1,2 km/h (1 Bft) W 0,00 h 0,076 mm 0,0 UV-I 9 W/m 14,1 C 23,5 C 2,6 km/h (1 Bft) 97,12 %
05.07.2017 22:00 21,9 C 23,9 C 61 % 1015,0 hPa 0,0 l/m 3,3 km/h (1 Bft) SW 0,00 h 0,025 mm 0,0 UV-I 0 W/m 14,1 C 21,9 C 5,6 km/h (1 Bft) 97,48 %
05.07.2017 23:00 21,1 C 23,9 C 65 % 1015,2 hPa 0,0 l/m 3,5 km/h (1 Bft) S-SW 0,00 h 0,026 mm 0,0 UV-I 0 W/m 14,2 C 21,1 C 6,8 km/h (2 Bft) 97,39 %
06.07.2017 00:00 20,5 C 23,9 C 67 % 1015,2 hPa 0,0 l/m 4,6 km/h (1 Bft) S-SW 0,00 h 0,000 mm 0,0 UV-I 0 W/m 14,3 C 20,5 C 7,6 km/h (2 Bft) 97,60 %
06.07.2017 01:00 20,0 C 23,8 C 69 % 1015,3 hPa 0,0 l/m 6,1 km/h (2 Bft) S-SW 0,00 h 0,025 mm 0,0 UV-I 0 W/m 14,1 C 19,9 C 9,7 km/h (2 Bft) 94,90 %
06.07.2017 02:00 19,4 C 23,3 C 71 % 1015,4 hPa 0,0 l/m 4,7 km/h (1 Bft) S-SW 0,00 h 0,026 mm 0,0 UV-I 0 W/m 14,1 C 19,4 C 7,2 km/h (2 Bft) 97,32 %
06.07.2017 03:00 18,6 C 23,3 C 74 % 1015,6 hPa 0,0 l/m 1,3 km/h (1 Bft) SW 0,00 h 0,025 mm 0,0 UV-I 0 W/m 14,0 C 18,6 C 2,7 km/h (1 Bft) 97,09 %
06.07.2017 04:00 18,3 C 23,3 C 76 % 1015,9 hPa 0,0 l/m 1,8 km/h (1 Bft) S-SW 0,00 h 0,000 mm 0,0 UV-I 5 W/m 14,1 C 18,3 C 3,7 km/h (1 Bft) 97,66 %
06.07.2017 05:00 17,1 C 23,3 C 82 % 1016,4 hPa 0,0 l/m 2,8 km/h (1 Bft) S-SW 0,20 h 0,000 mm 0,0 UV-I 22 W/m 14,0 C 17,1 C 4,6 km/h (1 Bft) 95,17 %
06.07.2017 06:00 17,9 C 23,3 C 79 % 1016,9 hPa 0,0 l/m 1,5 km/h (1 Bft) S-SO 0,10 h 0,026 mm 0,0 UV-I 79 W/m 14,2 C 17,9 C 3,7 km/h (1 Bft) 96,68 %
06.07.2017 07:00 19,7 C 23,3 C 73 % 1017,2 hPa 0,0 l/m 4,7 km/h (1 Bft) NO 0,93 h 0,050 mm 0,6 UV-I 286 W/m 14,7 C 19,7 C 7,5 km/h (2 Bft) 96,72 %
06.07.2017 08:00 21,4 C 23,3 C 68 % 1017,4 hPa 0,0 l/m 2,6 km/h (1 Bft) N-NO 1,00 h 0,204 mm 1,4 UV-I 443 W/m 15,2 C 21,4 C 5,7 km/h (1 Bft) 97,53 %
06.07.2017 09:00 23,2 C 23,3 C 63 % 1017,4 hPa 0,0 l/m 3,0 km/h (1 Bft) NO 1,00 h 0,279 mm 2,6 UV-I 596 W/m 15,8 C 23,2 C 6,1 km/h (2 Bft) 94,55 %
06.07.2017 10:00 25,3 C 23,9 C 55 % 1017,3 hPa 0,0 l/m 2,7 km/h (1 Bft) W-SW 1,00 h 0,381 mm 4,0 UV-I 735 W/m 15,5 C 25,2 C 5,7 km/h (1 Bft) 97,41 %
06.07.2017 11:00 27,4 C 23,9 C 48 % 1017,0 hPa 0,0 l/m 3,8 km/h (1 Bft) SW 1,00 h 0,483 mm 5,2 UV-I 828 W/m 15,2 C 27,3 C 7,6 km/h (2 Bft) 97,34 %
06.07.2017 12:00 29,1 C 24,3 C 41 % 1016,6 hPa 0,0 l/m 5,1 km/h (1 Bft) NO 1,00 h 0,558 mm 6,0 UV-I 880 W/m 14,5 C 29,0 C 10,0 km/h (2 Bft) 97,85 %
06.07.2017 13:00 30,4 C 24,7 C 39 % 1016,1 hPa 0,0 l/m 4,6 km/h (1 Bft) W-SW 1,00 h 0,635 mm 6,2 UV-I 890 W/m 15,0 C 30,4 C 9,6 km/h (2 Bft) 93,25 %
06.07.2017 14:00 31,5 C 25,0 C 35 % 1015,6 hPa 0,0 l/m 8,7 km/h (2 Bft) W-SW 1,00 h 0,635 mm 5,5 UV-I 866 W/m 14,2 C 31,4 C 15,5 km/h (3 Bft) 97,87 %
06.07.2017 15:00 32,1 C 25,5 C 31 % 1015,3 hPa 0,0 l/m 6,8 km/h (2 Bft) W-SW 0,97 h 0,686 mm 4,2 UV-I 765 W/m 13,0 C 32,0 C 13,1 km/h (3 Bft) 96,73 %
06.07.2017 16:00 32,5 C 25,6 C 28 % 1014,9 hPa 0,0 l/m 6,7 km/h (2 Bft) NW 1,00 h 0,584 mm 3,0 UV-I 651 W/m 11,7 C 32,5 C 13,0 km/h (3 Bft) 95,79 %
06.07.2017 17:00 32,4 C 26,0 C 27 % 1014,4 hPa 0,0 l/m 4,5 km/h (1 Bft) NW 1,00 h 0,534 mm 1,8 UV-I 476 W/m 11,2 C 32,4 C 9,9 km/h (2 Bft) 96,09 %
06.07.2017 18:00 31,8 C 26,1 C 29 % 1014,0 hPa 0,0 l/m 3,0 km/h (1 Bft) W-NW 1,00 h 0,381 mm 0,8 UV-I 305 W/m 11,6 C 31,8 C 7,0 km/h (2 Bft) 95,63 %
06.07.2017 19:00 31,0 C 26,1 C 31 % 1014,0 hPa 0,0 l/m 1,7 km/h (1 Bft) N-NW 1,00 h 0,254 mm 0,4 UV-I 156 W/m 11,8 C 31,0 C 4,7 km/h (1 Bft) 96,96 %
06.07.2017 20:00 28,4 C 26,1 C 38 % 1014,1 hPa 0,0 l/m 0,4 km/h (0 Bft) N-NW 0,47 h 0,152 mm 0,0 UV-I 39 W/m 12,6 C 28,4 C 1,5 km/h (1 Bft) 96,84 %
06.07.2017 21:00 24,2 C 25,6 C 51 % 1014,4 hPa 0,0 l/m 2,5 km/h (1 Bft) O 0,00 h 0,051 mm 0,0 UV-I 5 W/m 13,4 C 24,2 C 3,8 km/h (1 Bft) 98,31 %
06.07.2017 22:00 22,8 C 25,6 C 56 % 1014,8 hPa 0,0 l/m 2,1 km/h (1 Bft) O 0,00 h 0,025 mm 0,0 UV-I 0 W/m 13,5 C 22,8 C 3,7 km/h (1 Bft) 95,07 %
06.07.2017 23:00 22,0 C 25,6 C 61 % 1014,8 hPa 0,0 l/m 4,0 km/h (1 Bft) S-SO 0,00 h 0,026 mm 0,0 UV-I 0 W/m 14,1 C 22,0 C 6,9 km/h (2 Bft) 98,02 %
07.07.2017 00:00 20,2 C 25,5 C 69 % 1014,9 hPa 0,0 l/m 1,6 km/h (1 Bft) O 0,00 h 0,000 mm 0,0 UV-I 0 W/m 14,3 C 20,2 C 2,8 km/h (1 Bft) 96,83 %
07.07.2017 01:00 18,8 C 25,0 C 74 % 1014,9 hPa 0,0 l/m 0,8 km/h (0 Bft) O 0,00 h 0,025 mm 0,0 UV-I 0 W/m 14,1 C 18,8 C 2,1 km/h (1 Bft) 97,38 %
07.07.2017 02:00 17,8 C 25,0 C 77 % 1014,8 hPa 0,0 l/m 0,8 km/h (0 Bft) SO 0,00 h 0,000 mm 0,0 UV-I 0 W/m 13,8 C 17,8 C 1,8 km/h (1 Bft) 95,72 %
07.07.2017 03:00 17,1 C 25,0 C 80 % 1014,5 hPa 0,0 l/m 1,3 km/h (1 Bft) SO 0,00 h 0,000 mm 0,0 UV-I 0 W/m 13,6 C 17,1 C 2,4 km/h (1 Bft) 98,40 %
07.07.2017 04:00 16,7 C 25,0 C 81 % 1014,2 hPa 0,0 l/m 1,2 km/h (1 Bft) SO 0,00 h 0,000 mm 0,0 UV-I 0 W/m 13,4 C 16,7 C 2,0 km/h (1 Bft) 97,41 %
07.07.2017 05:00 16,5 C 24,7 C 81 % 1014,2 hPa 0,0 l/m 1,6 km/h (1 Bft) SO 0,57 h 0,000 mm 0,0 UV-I 26 W/m 13,3 C 16,5 C 2,7 km/h (1 Bft) 97,20 %
07.07.2017 06:00 17,7 C 24,4 C 79 % 1014,3 hPa 0,0 l/m 0,2 km/h (0 Bft) SO 0,60 h 0,026 mm 0,0 UV-I 108 W/m 14,0 C 17,7 C 1,1 km/h (0 Bft) 96,18 %
07.07.2017 07:00 20,6 C 24,4 C 69 % 1014,3 hPa 0,0 l/m 0,7 km/h (0 Bft) SO 0,90 h 0,076 mm 0,6 UV-I 232 W/m 14,6 C 20,6 C 1,8 km/h (1 Bft) 98,10 %
07.07.2017 08:00 21,2 C 24,4 C 70 % 1014,9 hPa 0,0 l/m 1,2 km/h (1 Bft) N 0,00 h 0,152 mm 0,7 UV-I 172 W/m 15,5 C 21,2 C 4,1 km/h (1 Bft) 96,74 %
07.07.2017 09:00 21,7 C 24,4 C 71 % 1015,3 hPa 0,0 l/m 4,8 km/h (1 Bft) O-SO 0,00 h 0,102 mm 1,1 UV-I 197 W/m 16,2 C 21,6 C 7,7 km/h (2 Bft) 95,14 %
07.07.2017 10:00 22,7 C 24,6 C 70 % 1015,6 hPa 0,0 l/m 3,3 km/h (1 Bft) S-SW 0,40 h 0,152 mm 2,9 UV-I 471 W/m 16,8 C 22,6 C 6,4 km/h (2 Bft) 95,28 %
07.07.2017 11:00 26,0 C 25,0 C 54 % 1015,9 hPa 0,0 l/m 4,5 km/h (1 Bft) W-SW 0,93 h 0,331 mm 4,7 UV-I 779 W/m 15,8 C 25,9 C 8,8 km/h (2 Bft) 97,78 %
07.07.2017 12:00 27,2 C 25,0 C 49 % 1015,6 hPa 0,0 l/m 7,5 km/h (2 Bft) SW 0,83 h 0,533 mm 5,0 UV-I 678 W/m 15,5 C 26,9 C 13,6 km/h (3 Bft) 95,95 %
07.07.2017 13:00 27,3 C 25,2 C 48 % 1016,1 hPa 0,0 l/m 7,7 km/h (2 Bft) W-SW 0,10 h 0,533 mm 2,3 UV-I 339 W/m 15,2 C 27,0 C 14,4 km/h (3 Bft) 95,43 %
07.07.2017 14:00 27,8 C 25,6 C 43 % 1015,3 hPa 0,0 l/m 13,0 km/h (3 Bft) SW 0,47 h 0,305 mm 3,5 UV-I 511 W/m 14,1 C 27,0 C 21,3 km/h (4 Bft) 97,87 %
07.07.2017 15:00 29,3 C 25,6 C 40 % 1014,1 hPa 0,0 l/m 13,0 km/h (3 Bft) W-SW 0,47 h 0,483 mm 3,6 UV-I 528 W/m 14,4 C 28,7 C 21,2 km/h (4 Bft) 97,84 %
07.07.2017 16:00 29,5 C 25,6 C 37 % 1014,1 hPa 0,0 l/m 10,0 km/h (2 Bft) W-SW 0,80 h 0,508 mm 2,6 UV-I 566 W/m 13,3 C 29,2 C 19,0 km/h (3 Bft) 96,56 %
07.07.2017 17:00 28,7 C 26,0 C 41 % 1013,4 hPa 0,0 l/m 6,9 km/h (2 Bft) W 0,97 h 0,482 mm 1,5 UV-I 398 W/m 14,2 C 28,5 C 13,4 km/h (3 Bft) 95,71 %
07.07.2017 18:00 29,1 C 26,0 C 39 % 1012,8 hPa 0,0 l/m 7,7 km/h (2 Bft) W-SW 0,97 h 0,331 mm 0,8 UV-I 292 W/m 13,7 C 28,9 C 12,8 km/h (3 Bft) 97,51 %
07.07.2017 19:00 28,9 C 25,6 C 42 % 1012,6 hPa 0,0 l/m 3,5 km/h (1 Bft) W-SW 0,80 h 0,279 mm 0,5 UV-I 137 W/m 14,6 C 28,8 C 6,0 km/h (2 Bft) 95,95 %
07.07.2017 20:00 26,5 C 25,6 C 52 % 1012,8 hPa 0,0 l/m 1,2 km/h (1 Bft) N-NO 0,07 h 0,127 mm 0,0 UV-I 32 W/m 15,8 C 26,5 C 2,1 km/h (1 Bft) 95,53 %
07.07.2017 21:00 23,5 C 25,5 C 64 % 1013,3 hPa 0,0 l/m 1,1 km/h (0 Bft) N-NO 0,00 h 0,051 mm 0,0 UV-I 5 W/m 16,3 C 23,5 C 2,2 km/h (1 Bft) 96,19 %
07.07.2017 22:00 22,2 C 25,1 C 69 % 1013,5 hPa 0,0 l/m 1,1 km/h (0 Bft) SO 0,00 h 0,025 mm 0,0 UV-I 0 W/m 16,3 C 22,2 C 2,5 km/h (1 Bft) 97,48 %
07.07.2017 23:00 22,3 C 25,0 C 68 % 1013,6 hPa 0,0 l/m 5,2 km/h (1 Bft) SW 0,00 h 0,026 mm 0,0 UV-I 0 W/m 16,2 C 22,3 C 7,1 km/h (2 Bft) 96,01 %
08.07.2017 00:00 21,6 C 25,0 C 71 % 1013,8 hPa 0,0 l/m 4,8 km/h (1 Bft) SW 0,00 h 0,000 mm 0,0 UV-I 0 W/m 16,1 C 21,5 C 7,1 km/h (2 Bft) 95,15 %
08.07.2017 01:00 20,9 C 25,0 C 75 % 1015,1 hPa 4,4 l/m 24,9 km/h (4 Bft) S-SW 0,00 h 0,025 mm 0,0 UV-I 0 W/m 16,2 C 16,9 C 39,8 km/h (6 Bft) 96,26 %
08.07.2017 02:00 18,2 C 24,7 C 89 % 1015,0 hPa 0,0 l/m 11,7 km/h (2 Bft) W-SW 0,00 h 0,102 mm 0,0 UV-I 0 W/m 16,4 C 16,2 C 18,2 km/h (3 Bft) 97,66 %
08.07.2017 03:00 17,4 C 24,4 C 93 % 1015,1 hPa 0,0 l/m 1,9 km/h (1 Bft) W-SW 0,00 h 0,025 mm 0,0 UV-I 0 W/m 16,3 C 17,4 C 4,0 km/h (1 Bft) 95,64 %
08.07.2017 04:00 17,5 C 24,4 C 94 % 1014,8 hPa 0,0 l/m 4,6 km/h (1 Bft) W-SW 0,00 h 0,000 mm 0,0 UV-I 0 W/m 16,6 C 17,5 C 7,7 km/h (2 Bft) 95,51 %
08.07.2017 05:00 17,2 C 24,4 C 94 % 1014,8 hPa 0,0 l/m 1,6 km/h (1 Bft) W-SW 0,17 h 0,000 mm 0,0 UV-I 18 W/m 16,2 C 17,2 C 3,6 km/h (1 Bft) 95,70 %
08.07.2017 06:00 17,8 C 24,4 C 93 % 1015,1 hPa 0,0 l/m 2,3 km/h (1 Bft) S-SW 0,80 h 0,026 mm 0,0 UV-I 109 W/m 16,7 C 17,8 C 4,3 km/h (1 Bft) 99,01 %
08.07.2017 07:00 19,7 C 24,4 C 87 % 1015,3 hPa 0,0 l/m 4,2 km/h (1 Bft) W 0,93 h 0,076 mm 0,7 UV-I 298 W/m 17,6 C 19,7 C 7,0 km/h (2 Bft) 95,76 %
08.07.2017 08:00 21,7 C 24,4 C 78 % 1015,4 hPa 0,0 l/m 2,3 km/h (1 Bft) W-NW 0,97 h 0,178 mm 1,5 UV-I 437 W/m 17,7 C 21,7 C 5,0 km/h (1 Bft) 97,00 %
08.07.2017 09:00 23,3 C 24,4 C 73 % 1015,3 hPa 0,0 l/m 4,5 km/h (1 Bft) W-SW 0,87 h 0,254 mm 2,6 UV-I 554 W/m 18,2 C 23,1 C 8,4 km/h (2 Bft) 97,27 %
08.07.2017 10:00 24,8 C 24,9 C 69 % 1015,0 hPa 0,0 l/m 5,8 km/h (2 Bft) W-NW 0,77 h 0,330 mm 3,7 UV-I 612 W/m 18,8 C 24,7 C 10,8 km/h (2 Bft) 98,66 %
08.07.2017 11:00 26,5 C 25,0 C 61 % 1014,9 hPa 0,0 l/m 6,6 km/h (2 Bft) W-SW 0,53 h 0,406 mm 4,9 UV-I 619 W/m 18,4 C 26,3 C 13,1 km/h (3 Bft) 95,56 %
08.07.2017 12:00 28,8 C 25,2 C 48 % 1014,4 hPa 0,0 l/m 11,9 km/h (2 Bft) W-SW 0,93 h 0,483 mm 6,3 UV-I 911 W/m 16,6 C 28,2 C 20,5 km/h (4 Bft) 97,78 %
08.07.2017 13:00 29,3 C 25,6 C 42 % 1014,3 hPa 0,0 l/m 12,4 km/h (3 Bft) W-SW 0,70 h 0,635 mm 5,8 UV-I 764 W/m 14,9 C 28,8 C 20,9 km/h (4 Bft) 97,76 %
08.07.2017 14:00 30,2 C 25,9 C 39 % 1013,9 hPa 0,0 l/m 15,7 km/h (3 Bft) SW 0,63 h 0,635 mm 5,1 UV-I 653 W/m 14,6 C 29,5 C 26,4 km/h (4 Bft) 99,23 %
08.07.2017 15:00 29,5 C 26,1 C 44 % 1013,3 hPa 0,0 l/m 16,8 km/h (3 Bft) W-SW 0,47 h 0,660 mm 3,1 UV-I 522 W/m 15,9 C 28,7 C 26,5 km/h (4 Bft) 94,77 %
08.07.2017 16:00 29,3 C 26,1 C 43 % 1012,8 hPa 0,0 l/m 8,4 km/h (2 Bft) N-NO 0,37 h 0,483 mm 2,3 UV-I 416 W/m 15,4 C 29,0 C 14,1 km/h (3 Bft) 97,98 %
08.07.2017 17:00 24,3 C 26,1 C 62 % 1013,6 hPa 0,0 l/m 5,4 km/h (1 Bft) N-NO 0,00 h 0,356 mm 0,5 UV-I 55 W/m 16,4 C 24,0 C 11,0 km/h (2 Bft) 95,98 %
08.07.2017 18:00 22,0 C 26,1 C 76 % 1013,8 hPa 0,0 l/m 4,2 km/h (1 Bft) S-SO 0,00 h 0,076 mm 0,0 UV-I 79 W/m 17,6 C 21,9 C 7,5 km/h (2 Bft) 95,75 %
08.07.2017 19:00 21,9 C 26,1 C 77 % 1013,2 hPa 0,0 l/m 5,8 km/h (2 Bft) S-SW 0,00 h 0,076 mm 0,0 UV-I 99 W/m 17,6 C 21,8 C 10,5 km/h (2 Bft) 94,28 %
08.07.2017 20:00 21,5 C 25,8 C 78 % 1013,2 hPa 0,0 l/m 6,7 km/h (2 Bft) SW 0,80 h 0,076 mm 0,0 UV-I 56 W/m 17,5 C 21,3 C 10,6 km/h (2 Bft) 96,23 %
08.07.2017 21:00 20,4 C 25,6 C 83 % 1013,5 hPa 0,0 l/m 5,0 km/h (1 Bft) S-SW 0,00 h 0,051 mm 0,0 UV-I 7 W/m 17,4 C 20,2 C 8,0 km/h (2 Bft) 95,31 %
08.07.2017 22:00 19,7 C 25,6 C 86 % 1014,0 hPa 0,0 l/m 2,3 km/h (1 Bft) S 0,00 h 0,025 mm 0,0 UV-I 0 W/m 17,3 C 19,7 C 4,2 km/h (1 Bft) 95,36 %
08.07.2017 23:00 19,3 C 25,6 C 88 % 1013,8 hPa 0,0 l/m 2,0 km/h (1 Bft) S 0,00 h 0,000 mm 0,0 UV-I 0 W/m 17,3 C 19,3 C 3,5 km/h (1 Bft) 94,76 %
09.07.2017 00:00 19,3 C 25,5 C 88 % 1014,0 hPa 0,0 l/m 3,5 km/h (1 Bft) S-SW 0,00 h 0,000 mm 0,0 UV-I 0 W/m 17,2 C 19,3 C 5,8 km/h (2 Bft) 96,65 %
09.07.2017 01:00 19,7 C 25,0 C 86 % 1014,0 hPa 0,0 l/m 4,0 km/h (1 Bft) S 0,00 h 0,000 mm 0,0 UV-I 0 W/m 17,3 C 19,7 C 6,1 km/h (2 Bft) 95,44 %
09.07.2017 02:00 19,3 C 25,0 C 87 % 1013,8 hPa 0,0 l/m 1,9 km/h (1 Bft) SW 0,00 h 0,000 mm 0,0 UV-I 0 W/m 17,2 C 19,3 C 3,5 km/h (1 Bft) 94,94 %
09.07.2017 03:00 18,1 C 25,0 C 91 % 1013,6 hPa 0,0 l/m 0,9 km/h (0 Bft) S-SO 0,00 h 0,000 mm 0,0 UV-I 0 W/m 16,5 C 18,1 C 1,7 km/h (1 Bft) 95,02 %
09.07.2017 04:00 17,3 C 25,0 C 92 % 1013,1 hPa 0,0 l/m 1,1 km/h (1 Bft) S-SO 0,00 h 0,000 mm 0,0 UV-I 0 W/m 16,0 C 17,3 C 2,1 km/h (1 Bft) 95,84 %
09.07.2017 05:00 16,7 C 25,0 C 93 % 1012,9 hPa 0,0 l/m 0,5 km/h (0 Bft) S-SO 0,23 h 0,000 mm 0,0 UV-I 19 W/m 15,6 C 16,7 C 1,3 km/h (1 Bft) 95,38 %
09.07.2017 06:00 17,3 C 25,0 C 93 % 1013,1 hPa 0,0 l/m 0,8 km/h (0 Bft) S-SO 0,83 h 0,025 mm 0,0 UV-I 106 W/m 16,1 C 17,3 C 1,8 km/h (1 Bft) 95,77 %
09.07.2017 07:00 20,2 C 25,0 C 83 % 1013,2 hPa 0,0 l/m 0,1 km/h (0 Bft) N 1,00 h 0,051 mm 0,7 UV-I 268 W/m 17,1 C 20,2 C 0,8 km/h (0 Bft) 96,67 %
09.07.2017 08:00 22,9 C 25,0 C 72 % 1013,3 hPa 0,0 l/m 1,7 km/h (1 Bft) NO 1,00 h 0,153 mm 1,6 UV-I 436 W/m 17,7 C 22,9 C 4,0 km/h (1 Bft) 97,43 %
09.07.2017 09:00 24,9 C 25,0 C 62 % 1013,4 hPa 0,0 l/m 2,2 km/h (1 Bft) NO 1,00 h 0,279 mm 2,8 UV-I 566 W/m 17,2 C 24,9 C 5,0 km/h (1 Bft) 96,41 %
09.07.2017 10:00 26,3 C 25,0 C 57 % 1013,7 hPa 0,0 l/m 4,4 km/h (1 Bft) W-SW 0,67 h 0,381 mm 3,5 UV-I 556 W/m 17,1 C 26,2 C 8,3 km/h (2 Bft) 94,25 %
09.07.2017 11:00 27,6 C 25,6 C 51 % 1013,7 hPa 0,0 l/m 10,1 km/h (2 Bft) W-SW 0,97 h 0,381 mm 5,3 UV-I 806 W/m 16,5 C 27,1 C 17,9 km/h (3 Bft) 96,36 %
09.07.2017 12:00 27,6 C 25,6 C 53 % 1013,5 hPa 0,0 l/m 12,1 km/h (2 Bft) W-SW 0,60 h 0,584 mm 4,5 UV-I 630 W/m 17,1 C 26,8 C 20,6 km/h (4 Bft) 96,42 %
09.07.2017 13:00 26,8 C 25,6 C 55 % 1013,1 hPa 0,0 l/m 5,4 km/h (1 Bft) W-SW 0,23 h 0,483 mm 2,7 UV-I 337 W/m 17,1 C 26,7 C 11,1 km/h (2 Bft) 97,23 %
09.07.2017 14:00 26,5 C 25,8 C 58 % 1012,5 hPa 0,0 l/m 3,3 km/h (1 Bft) N-NO 0,00 h 0,254 mm 2,3 UV-I 295 W/m 17,5 C 26,4 C 6,0 km/h (2 Bft) 94,98 %
09.07.2017 15:00 26,9 C 26,1 C 58 % 1011,7 hPa 0,0 l/m 3,9 km/h (1 Bft) N-NO 0,27 h 0,203 mm 2,7 UV-I 395 W/m 17,8 C 26,9 C 8,1 km/h (2 Bft) 98,01 %
09.07.2017 16:00 28,1 C 26,1 C 53 % 1010,9 hPa 0,0 l/m 4,9 km/h (1 Bft) NO 0,83 h 0,279 mm 2,9 UV-I 572 W/m 17,6 C 28,0 C 9,3 km/h (2 Bft) 97,01 %
09.07.2017 17:00 28,8 C 26,1 C 50 % 1010,2 hPa 0,0 l/m 7,8 km/h (2 Bft) O-NO 1,00 h 0,407 mm 1,8 UV-I 449 W/m 17,4 C 28,5 C 13,6 km/h (3 Bft) 97,23 %
09.07.2017 18:00 28,8 C 26,1 C 51 % 1009,7 hPa 0,0 l/m 9,6 km/h (2 Bft) O-NO 0,90 h 0,355 mm 0,8 UV-I 271 W/m 17,6 C 28,4 C 15,5 km/h (3 Bft) 95,55 %
09.07.2017 19:00 27,2 C 26,1 C 56 % 1009,7 hPa 0,0 l/m 3,4 km/h (1 Bft) O-NO 0,00 h 0,254 mm 0,0 UV-I 58 W/m 17,7 C 27,1 C 5,6 km/h (1 Bft) 97,78 %
09.07.2017 20:00 24,2 C 26,1 C 71 % 1011,1 hPa 2,8 l/m 13,6 km/h (3 Bft) W-SW 0,00 h 0,077 mm 0,0 UV-I 6 W/m 18,4 C 22,4 C 22,6 km/h (4 Bft) 96,79 %
09.07.2017 21:00 19,8 C 26,1 C 90 % 1011,1 hPa 2,0 l/m 4,4 km/h (1 Bft) S-SW 0,00 h 0,076 mm 0,0 UV-I 0 W/m 18,1 C 19,5 C 7,9 km/h (2 Bft) 95,95 %
09.07.2017 22:00 19,4 C 26,0 C 91 % 1010,9 hPa 0,0 l/m 5,5 km/h (1 Bft) S 0,00 h 0,000 mm 0,0 UV-I 0 W/m 17,9 C 19,2 C 10,6 km/h (2 Bft) 95,70 %
09.07.2017 23:00 19,1 C 25,6 C 89 % 1010,6 hPa 0,0 l/m 4,9 km/h (1 Bft) SO 0,00 h 0,000 mm 0,0 UV-I 0 W/m 17,3 C 18,9 C 8,8 km/h (2 Bft) 97,97 %
Min-Datum _ 05.07.17 03.07.17 06.07.17 09.07.17 - 04.07.17 - - - - - 06.07.17 03.07.17 04.07.17 05.07.17
_ Min-Zeit 05:20 03:20 17:20 18:24 - 18:54 - - - - - 17:26 05:12 18:54 20:52
Minimum _ 12,4 C 20,6 C 26 % 1009,5 hPa - 0,0 km/h (0 Bft) - - - - - 10,5 C 9,9 C 0,0 km/h (0 Bft) 84,00 %
Max-Datum _ 06.07.17 06.07.17 08.07.17 03.07.17 08.07.17 08.07.17 - 04.07.17 06.07.17 09.07.17 03.07.17 08.07.17 06.07.17 09.07.17 03.07.17
_ Max-Zeit 17:16 17:08 03:50 09:42 01:30 01:24 - 15:04 15:00 12:58 12:36 10:48 17:16 20:38 00:04
Maximum _ 32,9 C 26,1 C 95 % 1021,5 hPa 4,4 l/m 39,5 km/h
S-SW (6 Bft)
- 0,07 h 0,686 mm 7,4 UV-I 1226 W/m 19,4 C 32,9 C 62,8 km/h
W-SW (8 Bft)
100,00 %
Durchschnitt _ 22,0 C 23,7 C 66 % 1016,0 hPa #10,2 l/m 5,2 km/h (1 Bft) W-SW #70:45 h #33,199 mm 2,8 UV-I 363 W/m 14,5 C 21,6 C 9,2 km/h (2 Bft) 96,54 %